Hlavní strana
METAR-TAF:

METAR-TAF

Letiště :

Mezinárodní letiště Krále Fahda

Dammám, Saúdská Arábie

zeměpisná šířka: 26-28N, zeměpisná délka: 049-47E, výška: 22 m

Aktuální stav počasí

Zpráva byla vytvořena před 9 minutami, v 20:00 UTC
Západoseverozápadní vítr 7 kt
Teplota 18°C
Vlhkost vzduchu 68%
Tlak 1021 hPa
Viditelnost 10 km a více
Žádná oblačnost pod 1500 m, nevyskytují se cumulonimby.

METAR: OEDF 112000Z 30007KT CAVOK 18/12 Q1021 NOSIG

Čas: 23:09 (20:09 UTC)

Předpověď počasí

Zpráva byla vytvořena před 4 hodinami a 9 minutami, v 16:00 UTC
Předpověď platná od 11 v 18 UTC do 12 v 24 UTC
Severozápadní vítr 10 kt
Viditelnost 10 km a více
Žádná oblačnost pod 1500 m, nevyskytují se cumulonimby.

TAF: OEDF 111600Z 1118/1224 32010KT CAVOK

Stav a předpovědi počasí z více než 4 000 letišť (zprávy METAR a TAF).

Červené a žluté tečky na mapě představují dostupné meteorologické stanice.

Když kurzor umístíte na tečku, zobrazí se název stanice.

Pak kliknutím zobrazíte stav a předpověď počasí.

Chcete-li změnit mapu, kliknutím na zelené tlačítko se znaménkem +mapu přiblížíte, kliknutím na zelené tlačítko se znaménkem – mapu oddálíte a kliknutím na zelené šipky přejdete na sousední mapy.


METAR-TAF: